createdAt,value
2017-08-29T00:00:21.329Z,98471.03
2017-08-29T00:02:49.652Z,98473.55
2017-08-29T00:05:18.006Z,98473.08
2017-08-29T00:07:46.348Z,98470.70
2017-08-29T00:10:14.690Z,98471.59
2017-08-29T00:12:43.081Z,98469.30
2017-08-29T00:15:11.421Z,98471.39
2017-08-29T00:17:39.773Z,98472.77
2017-08-29T00:20:08.106Z,98465.39
2017-08-29T00:22:36.466Z,98466.16
2017-08-29T00:25:04.811Z,98454.48
2017-08-29T00:27:33.126Z,98451.13
2017-08-29T00:30:01.467Z,98458.03
2017-08-29T00:32:29.809Z,98455.19
2017-08-29T00:34:58.143Z,98452.91
2017-08-29T00:37:26.475Z,98453.63
2017-08-29T00:39:54.815Z,98451.80
2017-08-29T00:42:23.147Z,98457.37
2017-08-29T00:44:52.328Z,98452.16
2017-08-29T00:47:20.674Z,98449.64
2017-08-29T00:49:49.004Z,98443.86
2017-08-29T00:52:17.438Z,98447.16
2017-08-29T00:54:45.779Z,98450.20
2017-08-29T00:57:14.112Z,98449.00
2017-08-29T00:59:42.465Z,98445.84
2017-08-29T01:02:10.794Z,98447.24
2017-08-29T01:04:39.179Z,98441.18
2017-08-29T01:07:07.508Z,98439.25
2017-08-29T01:09:35.858Z,98436.27
2017-08-29T01:12:04.245Z,98434.08
2017-08-29T01:14:32.610Z,98438.72
2017-08-29T01:17:00.977Z,98437.56
2017-08-29T01:19:29.338Z,98432.48
2017-08-29T01:21:57.705Z,98427.84
2017-08-29T01:24:26.040Z,98426.95
2017-08-29T01:26:54.376Z,98430.42
2017-08-29T01:29:22.735Z,98426.72
2017-08-29T01:31:51.085Z,98421.61
2017-08-29T01:34:19.445Z,98426.62
2017-08-29T01:36:47.764Z,98415.04
2017-08-29T01:39:16.204Z,98412.91
2017-08-29T01:41:44.536Z,98416.32
2017-08-29T01:44:12.872Z,98418.05
2017-08-29T01:46:41.236Z,98416.49
2017-08-29T01:49:09.568Z,98412.77
2017-08-29T01:51:37.940Z,98407.69
2017-08-29T01:54:06.266Z,98412.56
2017-08-29T01:56:34.613Z,98403.48
2017-08-29T01:59:02.949Z,98413.44
2017-08-29T02:01:31.370Z,98410.83
2017-08-29T02:03:59.715Z,98408.08
2017-08-29T02:06:28.054Z,98405.52
2017-08-29T02:08:56.396Z,98406.33
2017-08-29T02:11:24.747Z,98408.85
2017-08-29T02:13:53.376Z,98411.45
2017-08-29T02:16:21.713Z,98405.48
2017-08-29T02:18:50.045Z,98403.25
2017-08-29T02:21:18.404Z,98402.16
2017-08-29T02:23:46.732Z,98397.10
2017-08-29T02:26:15.090Z,98394.43
2017-08-29T02:28:43.431Z,98396.87
2017-08-29T02:31:11.884Z,98389.22
2017-08-29T02:33:40.206Z,98390.33
2017-08-29T02:36:08.538Z,98392.80
2017-08-29T02:38:36.901Z,98387.52
2017-08-29T02:41:05.243Z,98385.58
2017-08-29T02:43:33.601Z,98388.26
2017-08-29T02:46:01.941Z,98386.78
2017-08-29T02:48:30.304Z,98384.75
2017-08-29T02:50:58.631Z,98384.09
2017-08-29T02:53:26.993Z,98382.38
2017-08-29T02:55:55.346Z,98381.48
2017-08-29T02:58:23.677Z,98386.83
2017-08-29T03:00:52.032Z,98384.90
2017-08-29T03:03:20.369Z,98380.98
2017-08-29T03:05:48.998Z,98382.93
2017-08-29T03:08:17.340Z,98377.14
2017-08-29T03:10:45.677Z,98379.13
2017-08-29T03:13:14.035Z,98378.27
2017-08-29T03:15:42.385Z,98374.33
2017-08-29T03:18:10.749Z,98373.27
2017-08-29T03:20:39.115Z,98374.81
2017-08-29T03:23:07.783Z,98378.01
2017-08-29T03:25:36.149Z,98381.28
2017-08-29T03:28:04.488Z,98379.13
2017-08-29T03:30:32.843Z,98379.06
2017-08-29T03:33:01.187Z,98375.11
2017-08-29T03:35:29.560Z,98382.02
2017-08-29T03:37:57.882Z,98381.96
2017-08-29T03:40:26.228Z,98381.75
2017-08-29T03:42:54.566Z,98381.75
2017-08-29T03:45:22.924Z,98379.47
2017-08-29T03:47:51.273Z,98379.65
2017-08-29T03:50:19.615Z,98374.58
2017-08-29T03:52:47.979Z,98376.05
2017-08-29T03:55:16.316Z,98377.64
2017-08-29T03:57:44.686Z,98372.14
2017-08-29T04:00:13.746Z,98373.66
2017-08-29T04:02:42.111Z,98377.63
2017-08-29T04:05:10.479Z,98376.55
2017-08-29T04:07:38.818Z,98377.41
2017-08-29T04:10:07.163Z,98376.92
2017-08-29T04:12:35.512Z,98374.87
2017-08-29T04:15:03.931Z,98380.28
2017-08-29T04:17:32.661Z,98378.09
2017-08-29T04:20:01.007Z,98377.22
2017-08-29T04:22:29.379Z,98376.75
2017-08-29T04:24:57.734Z,98378.11
2017-08-29T04:27:26.110Z,98379.17
2017-08-29T04:29:54.445Z,98377.66
2017-08-29T04:32:22.821Z,98380.45
2017-08-29T04:35:02.360Z,98379.06
2017-08-29T04:37:32.638Z,98380.74
2017-08-29T04:40:00.969Z,98382.78
2017-08-29T04:42:29.311Z,98379.73
2017-08-29T04:44:58.372Z,98380.53
2017-08-29T04:47:26.721Z,98383.16
2017-08-29T04:49:55.143Z,98378.49
2017-08-29T04:52:23.478Z,98380.44
2017-08-29T04:54:52.273Z,98377.97
2017-08-29T04:57:20.604Z,98385.37
2017-08-29T04:59:48.935Z,98382.30
2017-08-29T05:02:17.357Z,98386.19
2017-08-29T05:04:45.693Z,98384.48
2017-08-29T05:07:14.825Z,98380.05
2017-08-29T05:09:43.174Z,98389.58
2017-08-29T05:12:11.538Z,98392.70
2017-08-29T05:14:39.885Z,98386.42
2017-08-29T05:17:08.239Z,98387.23
2017-08-29T05:19:36.609Z,98384.91
2017-08-29T05:22:04.933Z,98384.94
2017-08-29T05:24:33.676Z,98390.07
2017-08-29T05:27:04.840Z,98400.02
2017-08-29T05:29:33.213Z,98402.77
2017-08-29T05:32:01.550Z,98399.72
2017-08-29T05:34:32.557Z,98394.33
2017-08-29T05:37:00.912Z,98392.37
2017-08-29T05:39:29.252Z,98397.28
2017-08-29T05:41:57.608Z,98392.73
2017-08-29T05:44:25.946Z,98399.75
2017-08-29T05:46:54.310Z,98401.45
2017-08-29T05:49:22.664Z,98404.41
2017-08-29T05:51:51.812Z,98406.33
2017-08-29T05:54:20.192Z,98403.42
2017-08-29T05:56:48.532Z,98399.11
2017-08-29T05:59:16.892Z,98399.27
2017-08-29T06:01:45.234Z,98399.33
2017-08-29T06:04:13.591Z,98397.92
2017-08-29T06:06:41.925Z,98397.75
2017-08-29T06:09:10.742Z,98402.75
2017-08-29T06:11:39.062Z,98404.57
2017-08-29T06:14:07.398Z,98403.53
2017-08-29T06:16:35.838Z,98406.38
2017-08-29T06:19:04.174Z,98403.81
2017-08-29T06:21:32.516Z,98397.20
2017-08-29T06:24:00.858Z,98395.41
2017-08-29T06:26:30.009Z,98395.49
2017-08-29T06:28:58.330Z,98396.50
2017-08-29T06:31:26.654Z,98390.05
2017-08-29T06:33:54.992Z,98389.16
2017-08-29T06:36:23.310Z,98383.66
2017-08-29T06:38:51.661Z,98384.38
2017-08-29T06:41:19.995Z,98379.75
2017-08-29T06:43:48.362Z,98379.61
2017-08-29T06:46:16.690Z,98376.70
2017-08-29T06:48:45.064Z,98377.82
2017-08-29T06:51:13.418Z,98375.72
2017-08-29T06:53:41.753Z,98373.82
2017-08-29T06:56:10.100Z,98377.20
2017-08-29T06:58:39.467Z,98373.14
2017-08-29T07:01:07.820Z,98366.58
2017-08-29T07:03:36.166Z,98365.66
2017-08-29T07:06:04.937Z,98370.59
2017-08-29T07:08:33.934Z,98358.75
2017-08-29T07:11:02.279Z,98359.70
2017-08-29T07:13:30.621Z,98352.84
2017-08-29T07:15:58.959Z,98352.09
2017-08-29T07:18:27.376Z,98360.13
2017-08-29T07:20:55.731Z,98356.47
2017-08-29T07:23:24.332Z,98356.83
2017-08-29T07:25:52.668Z,98352.70
2017-08-29T07:28:20.994Z,98348.29
2017-08-29T07:30:50.276Z,98349.65
2017-08-29T07:33:18.620Z,98346.33
2017-08-29T07:35:46.981Z,98346.08
2017-08-29T07:38:15.313Z,98344.89
2017-08-29T07:40:43.676Z,98352.97
2017-08-29T07:43:12.062Z,98351.42
2017-08-29T07:45:40.419Z,98352.25
2017-08-29T07:48:08.787Z,98351.92
2017-08-29T07:50:37.112Z,98354.09
2017-08-29T07:53:05.471Z,98349.88
2017-08-29T07:55:33.846Z,98353.98
2017-08-29T07:58:02.194Z,98361.34
2017-08-29T08:00:30.545Z,98360.12
2017-08-29T08:02:58.876Z,98354.91
2017-08-29T08:05:27.345Z,98360.83
2017-08-29T08:07:55.690Z,98367.14
2017-08-29T08:10:24.074Z,98351.67
2017-08-29T08:12:52.423Z,98353.59
2017-08-29T08:15:21.629Z,98356.84
2017-08-29T08:17:49.961Z,98350.13
2017-08-29T08:20:18.324Z,98352.67
2017-08-29T08:22:46.639Z,98348.57
2017-08-29T08:25:15.046Z,98342.25
2017-08-29T08:27:43.374Z,98342.41
2017-08-29T08:30:12.015Z,98341.66
2017-08-29T08:32:40.379Z,98341.67
2017-08-29T08:35:08.722Z,98337.95
2017-08-29T08:37:37.079Z,98339.66
2017-08-29T08:40:05.415Z,98335.53
2017-08-29T08:42:34.210Z,98332.91
2017-08-29T08:45:02.541Z,98334.34
2017-08-29T08:47:31.395Z,98331.02
2017-08-29T08:49:59.730Z,98328.34
2017-08-29T08:52:28.141Z,98325.36
2017-08-29T08:54:56.494Z,98317.77
2017-08-29T08:57:24.836Z,98319.13
2017-08-29T08:59:53.188Z,98312.59
2017-08-29T09:02:21.524Z,98316.03
2017-08-29T09:04:50.323Z,98310.80
2017-08-29T09:07:18.651Z,98307.77
2017-08-29T09:09:46.996Z,98302.14
2017-08-29T09:12:15.341Z,98301.77
2017-08-29T09:14:43.669Z,98297.16
2017-08-29T09:17:12.058Z,98294.97
2017-08-29T09:19:40.396Z,98291.87
2017-08-29T09:22:09.028Z,98287.42
2017-08-29T09:24:37.370Z,98291.61
2017-08-29T09:27:05.694Z,98282.46
2017-08-29T09:29:34.082Z,98276.72
2017-08-29T09:32:02.514Z,98273.70
2017-08-29T09:34:30.879Z,98279.34
2017-08-29T09:36:59.214Z,98278.94
2017-08-29T09:39:27.947Z,98273.66
2017-08-29T09:41:56.278Z,98274.74
2017-08-29T09:44:24.618Z,98277.20
2017-08-29T09:46:52.973Z,98275.47
2017-08-29T09:49:21.319Z,98273.23
2017-08-29T09:51:49.688Z,98269.80
2017-08-29T09:54:18.043Z,98269.44
2017-08-29T09:56:46.408Z,98270.30
2017-08-29T09:59:14.746Z,98264.43
2017-08-29T10:01:43.100Z,98268.85
2017-08-29T10:04:11.435Z,98273.14
2017-08-29T10:06:39.761Z,98268.70
2017-08-29T10:09:08.101Z,98272.33
2017-08-29T10:11:36.428Z,98271.14
2017-08-29T10:14:04.806Z,98269.26
2017-08-29T10:16:33.147Z,98262.59
2017-08-29T10:19:01.503Z,98266.05
2017-08-29T10:21:29.832Z,98260.17
2017-08-29T10:23:58.188Z,98261.53
2017-08-29T10:26:26.519Z,98264.88
2017-08-29T10:28:54.877Z,98263.39
2017-08-29T10:31:23.195Z,98264.46
2017-08-29T10:33:51.529Z,98259.53
2017-08-29T10:36:19.862Z,98262.20
2017-08-29T10:38:48.195Z,98257.78
2017-08-29T10:41:16.523Z,98256.70
2017-08-29T10:43:44.864Z,98257.23
2017-08-29T10:46:13.201Z,98253.60
2017-08-29T10:48:41.554Z,98252.91
2017-08-29T10:51:09.933Z,98248.88
2017-08-29T10:53:38.263Z,98245.11
2017-08-29T10:56:06.621Z,98249.55
2017-08-29T10:58:34.980Z,98248.31
2017-08-29T11:01:03.331Z,98242.28
2017-08-29T11:03:31.659Z,98243.46
2017-08-29T11:06:00.017Z,98238.39
2017-08-29T11:08:28.341Z,98237.45
2017-08-29T11:10:56.690Z,98238.61
2017-08-29T11:13:25.055Z,98230.29
2017-08-29T11:15:53.399Z,98224.78
2017-08-29T11:18:21.750Z,98221.33
2017-08-29T11:20:50.101Z,98227.03
2017-08-29T11:23:18.457Z,98223.77
2017-08-29T11:25:46.784Z,98226.92
2017-08-29T11:28:15.151Z,98222.88
2017-08-29T11:30:43.552Z,98210.72
2017-08-29T11:33:11.885Z,98208.27
2017-08-29T11:35:40.237Z,98210.92
2017-08-29T11:38:08.576Z,98206.05
2017-08-29T11:40:36.915Z,98210.34
2017-08-29T11:43:05.267Z,98209.37
2017-08-29T11:45:33.627Z,98201.85
2017-08-29T11:48:01.979Z,98196.98
2017-08-29T11:50:30.337Z,98197.29
2017-08-29T11:52:58.672Z,98194.28
2017-08-29T11:55:27.001Z,98200.79
2017-08-29T11:57:55.360Z,98195.77
2017-08-29T12:00:23.692Z,98190.84
2017-08-29T12:02:52.051Z,98192.34
2017-08-29T12:05:20.371Z,98193.79
2017-08-29T12:07:48.712Z,98191.34
2017-08-29T12:10:17.064Z,98189.79
2017-08-29T12:12:45.409Z,98193.38
2017-08-29T12:15:13.751Z,98189.31
2017-08-29T12:17:42.451Z,98185.33
2017-08-29T12:20:10.815Z,98184.56
2017-08-29T12:22:39.177Z,98182.92
2017-08-29T12:25:07.516Z,98173.89
2017-08-29T12:27:35.868Z,98175.42
2017-08-29T12:30:04.218Z,98161.88
2017-08-29T12:32:32.558Z,98163.77
2017-08-29T12:35:01.041Z,98157.20
2017-08-29T12:37:29.379Z,98155.91
2017-08-29T12:39:57.733Z,98143.06
2017-08-29T12:42:26.070Z,98141.06
2017-08-29T12:44:54.825Z,98141.60
2017-08-29T12:47:23.177Z,98137.58
2017-08-29T12:49:51.509Z,98130.45
2017-08-29T12:52:20.264Z,98118.63
2017-08-29T12:54:48.588Z,98119.52
2017-08-29T12:57:16.917Z,98116.39
2017-08-29T12:59:45.279Z,98119.51
2017-08-29T13:02:13.637Z,98114.57
2017-08-29T13:04:42.012Z,98109.73
2017-08-29T13:07:10.369Z,98108.11
2017-08-29T13:09:39.033Z,98104.08
2017-08-29T13:12:07.368Z,98096.66
2017-08-29T13:14:35.723Z,98093.14
2017-08-29T13:17:04.066Z,98084.98
2017-08-29T13:19:32.402Z,98090.24
2017-08-29T13:22:00.768Z,98081.95
2017-08-29T13:24:29.535Z,98078.31
2017-08-29T13:26:58.311Z,98074.72
2017-08-29T13:29:26.649Z,98076.38
2017-08-29T13:31:54.984Z,98068.08
2017-08-29T13:34:23.342Z,98071.17
2017-08-29T13:36:51.663Z,98073.78
2017-08-29T13:39:20.276Z,98070.98
2017-08-29T13:41:48.635Z,98061.84
2017-08-29T13:44:17.592Z,98059.75
2017-08-29T13:46:45.933Z,98057.95
2017-08-29T13:49:14.298Z,98061.15
2017-08-29T13:51:42.659Z,98056.66
2017-08-29T13:54:11.080Z,98058.03
2017-08-29T13:56:39.604Z,98055.32
2017-08-29T13:59:07.947Z,98058.33
2017-08-29T14:01:36.297Z,98057.97
2017-08-29T14:04:04.675Z,98052.81
2017-08-29T14:06:33.010Z,98051.75
2017-08-29T14:09:01.364Z,98047.14
2017-08-29T14:11:29.711Z,98050.40
2017-08-29T14:13:58.470Z,98048.16
2017-08-29T14:16:26.792Z,98052.75
2017-08-29T14:18:55.119Z,98055.73
2017-08-29T14:21:23.521Z,98057.19
2017-08-29T14:23:51.841Z,98048.31
2017-08-29T14:26:20.202Z,98049.63
2017-08-29T14:28:48.533Z,98047.14
2017-08-29T14:31:17.665Z,98045.08
2017-08-29T14:33:46.016Z,98041.63
2017-08-29T14:36:14.340Z,98041.16
2017-08-29T14:38:42.800Z,98047.38
2017-08-29T14:41:11.138Z,98035.70
2017-08-29T14:43:39.492Z,98039.23
2017-08-29T14:46:07.820Z,98028.36
2017-08-29T14:48:53.810Z,98031.11
2017-08-29T14:51:22.132Z,98030.33
2017-08-29T14:53:50.482Z,98026.34
2017-08-29T14:56:18.833Z,98014.23
2017-08-29T14:58:47.198Z,98013.80
2017-08-29T15:01:15.630Z,98013.05
2017-08-29T15:03:43.962Z,98014.48
2017-08-29T15:06:12.342Z,98018.44
2017-08-29T15:08:40.680Z,98015.62
2017-08-29T15:11:09.042Z,98017.27
2017-08-29T15:13:37.401Z,98010.64
2017-08-29T15:16:06.610Z,98013.36
2017-08-29T15:18:34.995Z,98008.44
2017-08-29T15:21:03.405Z,98004.00
2017-08-29T15:23:32.017Z,98001.16
2017-08-29T15:26:00.426Z,97999.46
2017-08-29T15:28:28.801Z,97997.31
2017-08-29T15:30:57.168Z,97996.02
2017-08-29T15:33:25.550Z,97991.73
2017-08-29T15:35:53.955Z,97991.73
2017-08-29T15:38:22.277Z,97988.42
2017-08-29T15:40:50.661Z,97993.42
2017-08-29T15:43:19.130Z,97987.34
2017-08-29T15:45:47.480Z,97991.33
2017-08-29T15:48:15.877Z,97990.63
2017-08-29T15:50:44.300Z,97993.77
2017-08-29T15:53:12.692Z,97995.88
2017-08-29T15:55:41.052Z,97993.53
2017-08-29T15:58:09.415Z,97985.84
2017-08-29T16:00:37.771Z,97986.78
2017-08-29T16:03:06.158Z,97991.45
2017-08-29T16:05:34.546Z,97991.41
2017-08-29T16:08:02.904Z,97995.27
2017-08-29T16:10:31.303Z,97984.35
2017-08-29T16:12:59.645Z,97977.82
2017-08-29T16:15:27.989Z,97981.08
2017-08-29T16:17:56.357Z,97982.06
2017-08-29T16:20:24.687Z,97981.66
2017-08-29T16:22:53.098Z,97984.75
2017-08-29T16:25:21.499Z,97984.81
2017-08-29T16:27:50.242Z,97985.98
2017-08-29T16:30:18.566Z,97975.42
2017-08-29T16:32:46.922Z,97979.13
2017-08-29T16:35:16.008Z,97973.11
2017-08-29T16:37:44.332Z,97974.70
2017-08-29T16:40:12.683Z,97966.97
2017-08-29T16:42:42.856Z,97964.19
2017-08-29T16:45:11.262Z,97973.69
2017-08-29T16:47:39.595Z,97971.67
2017-08-29T16:50:08.243Z,97964.38
2017-08-29T16:52:36.581Z,97963.94
2017-08-29T16:55:04.940Z,97966.22
2017-08-29T16:57:33.298Z,97965.41
2017-08-29T17:00:01.631Z,97962.46
2017-08-29T17:02:30.011Z,97965.86
2017-08-29T17:04:58.439Z,97966.97
2017-08-29T17:07:26.809Z,97964.16
2017-08-29T17:09:55.187Z,97964.65
2017-08-29T17:12:23.533Z,97970.53
2017-08-29T17:14:51.947Z,97966.95
2017-08-29T17:17:20.287Z,97967.39
2017-08-29T17:19:49.430Z,97962.86
2017-08-29T17:22:17.765Z,97967.44
2017-08-29T17:24:46.133Z,97964.31
2017-08-29T17:27:14.481Z,97969.59
2017-08-29T17:29:42.880Z,97967.64
2017-08-29T17:32:11.259Z,97965.02
2017-08-29T17:34:39.632Z,97964.45
2017-08-29T17:37:08.005Z,97963.41
2017-08-29T17:39:36.428Z,97968.30
2017-08-29T17:42:04.778Z,97966.98
2017-08-29T17:44:33.118Z,97971.01
2017-08-29T17:47:01.471Z,97970.70
2017-08-29T17:49:31.094Z,97973.03
2017-08-29T17:51:59.851Z,97966.55
2017-08-29T17:54:28.194Z,97970.57
2017-08-29T17:56:56.525Z,97973.63
2017-08-29T17:59:24.923Z,97977.50
2017-08-29T18:01:53.259Z,97983.53
2017-08-29T18:04:22.051Z,97984.65
2017-08-29T18:06:50.416Z,97985.20
2017-08-29T18:09:19.148Z,97987.28
2017-08-29T18:11:47.497Z,97992.80
2017-08-29T18:14:15.844Z,97993.36
2017-08-29T18:16:44.225Z,97989.32
2017-08-29T18:19:12.565Z,98000.98
2017-08-29T18:21:40.911Z,97997.64
2017-08-29T18:24:11.079Z,97993.89
2017-08-29T18:26:39.717Z,97992.62
2017-08-29T18:29:08.070Z,97994.82
2017-08-29T18:31:36.411Z,97986.33
2017-08-29T18:34:04.777Z,97997.89
2017-08-29T18:36:33.122Z,98000.20
2017-08-29T18:39:01.484Z,98006.10
2017-08-29T18:41:29.824Z,98004.50
2017-08-29T18:43:58.505Z,98008.25
2017-08-29T18:46:26.871Z,98016.69
2017-08-29T18:48:55.280Z,98022.50
2017-08-29T18:51:23.628Z,98023.05
2017-08-29T18:53:51.953Z,98025.46
2017-08-29T18:56:20.548Z,98028.02
2017-08-29T18:58:48.906Z,98032.02
2017-08-29T19:01:17.324Z,98030.53
2017-08-29T19:03:45.697Z,98041.20
2017-08-29T19:06:14.049Z,98034.94
2017-08-29T19:08:42.455Z,98040.55
2017-08-29T19:11:10.797Z,98034.81
2017-08-29T19:13:39.145Z,98031.38
2017-08-29T19:16:11.275Z,98033.22
2017-08-29T19:18:39.933Z,98032.84
2017-08-29T19:21:08.277Z,98035.64
2017-08-29T19:23:36.629Z,98040.43
2017-08-29T19:26:05.011Z,98037.89
2017-08-29T19:28:34.272Z,98035.22
2017-08-29T19:31:02.689Z,98033.09
2017-08-29T19:33:31.068Z,98040.16
2017-08-29T19:35:59.719Z,98030.47
2017-08-29T19:38:29.236Z,98035.92
2017-08-29T19:40:58.055Z,98022.09
2017-08-29T19:43:26.425Z,98026.34
2017-08-29T19:45:54.772Z,98025.39
2017-08-29T19:48:24.413Z,98029.61
2017-08-29T19:50:52.795Z,98024.16
2017-08-29T19:53:21.178Z,98029.83
2017-08-29T19:55:49.555Z,98037.70
2017-08-29T19:58:17.972Z,98037.70
2017-08-29T20:00:46.336Z,98035.44
2017-08-29T20:03:14.674Z,98031.84
2017-08-29T20:05:43.451Z,98034.87
2017-08-29T20:08:11.790Z,98031.05
2017-08-29T20:10:40.146Z,98031.56
2017-08-29T20:13:08.504Z,98028.92
2017-08-29T20:15:36.839Z,98038.59
2017-08-29T20:18:08.370Z,98034.23
2017-08-29T20:20:36.722Z,98035.09
2017-08-29T20:23:05.079Z,98029.70
2017-08-29T20:25:33.481Z,98032.20
2017-08-29T20:28:03.028Z,98034.28
2017-08-29T20:30:32.293Z,98035.49
2017-08-29T20:33:01.030Z,98025.83
2017-08-29T20:35:30.486Z,98028.83
2017-08-29T20:37:59.084Z,98037.34
2017-08-29T20:40:28.002Z,98037.81
2017-08-29T20:42:56.979Z,98037.61
2017-08-29T20:45:27.173Z,98035.64
2017-08-29T20:47:57.490Z,98035.66
2017-08-29T20:50:26.289Z,98039.92
2017-08-29T20:52:54.625Z,98040.51
2017-08-29T20:55:23.788Z,98038.59
2017-08-29T20:57:52.167Z,98035.42
2017-08-29T21:00:20.941Z,98040.27
2017-08-29T21:02:49.273Z,98039.31
2017-08-29T21:05:17.641Z,98040.41
2017-08-29T21:07:46.358Z,98032.44
2017-08-29T21:10:14.721Z,98036.20
2017-08-29T21:12:43.128Z,98030.27
2017-08-29T21:15:12.254Z,98032.89
2017-08-29T21:17:40.586Z,98028.52
2017-08-29T21:20:08.945Z,98031.86
2017-08-29T21:22:37.297Z,98027.77
2017-08-29T21:25:05.646Z,98020.48
2017-08-29T21:27:34.013Z,98022.92
2017-08-29T21:30:03.129Z,98023.65
2017-08-29T21:32:31.473Z,98020.50
2017-08-29T21:34:59.813Z,98024.67
2017-08-29T21:37:28.165Z,98024.00
2017-08-29T21:39:56.508Z,98019.58
2017-08-29T21:42:25.050Z,98022.47
2017-08-29T21:44:53.385Z,98021.60
2017-08-29T21:47:21.769Z,98013.67
2017-08-29T21:49:50.109Z,98015.45
2017-08-29T21:52:20.517Z,98014.20
2017-08-29T21:54:48.861Z,98010.48
2017-08-29T21:57:17.210Z,98009.23
2017-08-29T21:59:45.565Z,98010.34
2017-08-29T22:02:13.928Z,98012.41
2017-08-29T22:04:42.294Z,98008.44
2017-08-29T22:07:10.652Z,98001.88
2017-08-29T22:09:39.029Z,98003.52
2017-08-29T22:12:07.424Z,98011.08
2017-08-29T22:14:35.789Z,98010.95
2017-08-29T22:17:04.174Z,98007.61
2017-08-29T22:19:32.514Z,98009.98
2017-08-29T22:22:00.880Z,98015.73
2017-08-29T22:24:29.240Z,98009.15
2017-08-29T22:26:57.571Z,98008.27
2017-08-29T22:29:25.996Z,98009.84
2017-08-29T22:31:54.368Z,98005.03
2017-08-29T22:34:22.725Z,98003.85
2017-08-29T22:36:51.061Z,98005.00
2017-08-29T22:39:19.409Z,98006.13
2017-08-29T22:41:47.773Z,97999.00
2017-08-29T22:44:16.569Z,98002.55
2017-08-29T22:46:45.709Z,98001.09
2017-08-29T22:49:14.058Z,98000.01
2017-08-29T22:51:42.413Z,97994.50
2017-08-29T22:54:14.274Z,97997.44
2017-08-29T22:56:43.491Z,97990.41
2017-08-29T22:59:11.840Z,97997.30
2017-08-29T23:01:40.186Z,97991.85
2017-08-29T23:04:08.565Z,97995.51
2017-08-29T23:06:36.881Z,97999.69
2017-08-29T23:09:05.223Z,97996.26
2017-08-29T23:11:33.979Z,97994.23
2017-08-29T23:14:03.092Z,97996.31
2017-08-29T23:16:31.436Z,97987.41
2017-08-29T23:19:00.495Z,97989.80
2017-08-29T23:21:28.856Z,97989.47
2017-08-29T23:23:57.197Z,97985.98
2017-08-29T23:26:26.038Z,97986.80
2017-08-29T23:28:54.388Z,97983.11
2017-08-29T23:31:22.748Z,97980.31
2017-08-29T23:33:51.103Z,97981.41
2017-08-29T23:36:19.432Z,97983.89
2017-08-29T23:38:47.796Z,97977.71
2017-08-29T23:41:16.158Z,97969.03
2017-08-29T23:43:44.545Z,97975.71
2017-08-29T23:46:12.869Z,97973.86
2017-08-29T23:48:41.223Z,97969.66
2017-08-29T23:51:09.568Z,97970.33
2017-08-29T23:53:37.969Z,97968.39
2017-08-29T23:56:06.321Z,97967.59
2017-08-29T23:58:34.677Z,97961.23
